Panama City Beach, Florida
Current Conditions -  °F | °C
As of 12:53 PM on Thursday 30 Oct 2014 (Local Time) from KECP Reporting Station
Clear Clear  
Wind Chill: 74°   Ceiling: Unl
Heat Index: 74°   Visibility: 10mi
Dew Point: 44°   Wind: 9mph
Humidity: 34%   Direction: 20°NNE
Pressure: 29.99"   Gusts: NA
Location:  30.21°N, 85.85°W
Report Text: KECP 301753Z 02008KT 10SM CLR 23/07 A2999 RMK AO2 SLP168 T02330067 10233 20167 58017
Loading
Personal Weather Stations






























Interactive Weather Map
Tropical Storm Tracking
New forecast layout! Learn more

10-Day Weather Forecast

Advertisements
Track Severe Weather on mobile